createdAt,value
2023-05-19T00:00:40.193Z,7.65
2023-05-19T00:05:46.491Z,5.28
2023-05-19T00:10:48.870Z,6.55
2023-05-19T00:15:51.398Z,4.22
2023-05-19T00:20:53.480Z,5.07
2023-05-19T00:30:57.394Z,4.20
2023-05-19T00:41:02.658Z,4.07
2023-05-19T00:46:04.817Z,5.47
2023-05-19T00:51:07.403Z,5.22
2023-05-19T00:56:09.457Z,8.65
2023-05-19T01:06:15.331Z,4.55
2023-05-19T01:11:17.611Z,5.90
2023-05-19T01:16:27.463Z,5.75
2023-05-19T01:21:55.802Z,6.93
2023-05-19T01:27:38.924Z,6.32
2023-05-19T01:32:42.439Z,5.20
2023-05-19T01:37:45.682Z,10.23
2023-05-19T01:42:48.195Z,6.38
2023-05-19T01:47:54.175Z,7.30
2023-05-19T01:52:56.760Z,5.38
2023-05-19T01:58:20.123Z,4.80
2023-05-19T02:03:28.044Z,5.25
2023-05-19T02:08:44.669Z,4.20
2023-05-19T02:13:51.582Z,5.43
2023-05-19T02:18:54.469Z,5.82
2023-05-19T02:23:56.571Z,4.78
2023-05-19T02:34:00.549Z,7.50
2023-05-19T02:44:05.951Z,2.78
2023-05-19T02:49:07.976Z,2.65
2023-05-19T02:54:10.023Z,2.75
2023-05-19T02:59:12.026Z,3.88
2023-05-19T03:04:14.321Z,3.08
2023-05-19T03:09:16.559Z,3.30
2023-05-19T03:19:21.212Z,2.70
2023-05-19T03:24:23.464Z,4.85
2023-05-19T03:34:27.475Z,4.97
2023-05-19T03:39:29.559Z,8.48
2023-05-19T03:44:31.590Z,4.53
2023-05-19T03:49:33.643Z,3.10
2023-05-19T03:54:36.367Z,2.55
2023-05-19T03:59:38.643Z,2.63
2023-05-19T04:04:40.704Z,2.30
2023-05-19T04:09:43.205Z,4.30
2023-05-19T04:14:45.275Z,2.55
2023-05-19T04:24:50.711Z,2.63
2023-05-19T04:29:53.117Z,2.63
2023-05-19T04:34:55.297Z,3.90
2023-05-19T04:44:59.646Z,2.83
2023-05-19T04:55:04.367Z,3.10
2023-05-19T05:00:09.367Z,3.40
2023-05-19T05:05:11.413Z,3.40
2023-05-19T05:15:16.216Z,3.22
2023-05-19T05:20:19.922Z,2.28
2023-05-19T05:25:22.351Z,2.88
2023-05-19T05:30:24.404Z,3.58
2023-05-19T05:40:28.402Z,2.15
2023-05-19T05:50:33.606Z,3.50
2023-05-19T05:55:36.123Z,3.40
2023-05-19T06:00:38.985Z,4.45
2023-05-19T06:05:47.723Z,4.15
2023-05-19T06:10:50.935Z,3.88
2023-05-19T06:15:53.291Z,2.78
2023-05-19T06:20:55.812Z,3.38
2023-05-19T06:25:58.065Z,3.58
2023-05-19T06:31:00.512Z,4.13
2023-05-19T06:36:02.760Z,5.13
2023-05-19T06:41:05.722Z,4.18
2023-05-19T06:46:08.417Z,2.95
2023-05-19T06:51:15.244Z,5.00
2023-05-19T06:56:19.146Z,2.22
2023-05-19T07:01:21.642Z,4.28
2023-05-19T07:06:24.145Z,4.90
2023-05-19T07:11:27.199Z,2.00
2023-05-19T07:16:38.674Z,2.80
2023-05-19T07:21:42.743Z,3.60
2023-05-19T07:26:44.977Z,1.90
2023-05-19T07:31:47.108Z,4.55
2023-05-19T07:36:49.297Z,2.53
2023-05-19T07:41:54.663Z,1.83
2023-05-19T07:46:56.705Z,2.25
2023-05-19T07:51:58.839Z,1.80
2023-05-19T07:57:01.300Z,1.75
2023-05-19T08:02:03.735Z,2.90
2023-05-19T08:07:05.911Z,2.33
2023-05-19T08:12:08.278Z,2.15
2023-05-19T08:17:10.561Z,2.28
2023-05-19T08:22:12.798Z,1.95
2023-05-19T08:27:14.818Z,1.52
2023-05-19T08:32:17.793Z,1.60
2023-05-19T08:37:19.842Z,1.85
2023-05-19T08:42:21.919Z,2.90
2023-05-19T08:47:24.207Z,2.17
2023-05-19T08:52:37.015Z,4.43
2023-05-19T08:57:39.885Z,2.45
2023-05-19T09:02:50.628Z,1.63
2023-05-19T09:08:05.255Z,2.20
2023-05-19T09:13:07.875Z,3.83
2023-05-19T09:18:13.305Z,4.47
2023-05-19T09:23:16.955Z,2.38
2023-05-19T09:28:25.995Z,3.70
2023-05-19T09:33:28.893Z,3.72
2023-05-19T09:38:31.058Z,3.85
2023-05-19T09:43:34.613Z,3.83
2023-05-19T09:48:37.727Z,4.30
2023-05-19T09:53:40.094Z,3.28
2023-05-19T09:58:43.004Z,3.40
2023-05-19T10:03:45.561Z,4.40
2023-05-19T10:08:48.448Z,1.98
2023-05-19T10:13:51.867Z,3.72
2023-05-19T10:18:57.470Z,3.08
2023-05-19T10:23:59.657Z,2.17
2023-05-19T10:29:03.711Z,3.53
2023-05-19T10:34:50.651Z,3.17
2023-05-19T10:39:53.650Z,4.40
2023-05-19T10:45:10.501Z,8.52
2023-05-19T10:50:12.811Z,4.40
2023-05-19T10:55:18.339Z,4.10
2023-05-19T11:00:32.285Z,4.15
2023-05-19T11:05:37.424Z,4.90
2023-05-19T11:10:39.967Z,3.35
2023-05-19T11:15:43.417Z,7.03
2023-05-19T11:20:58.664Z,3.58
2023-05-19T11:26:03.055Z,3.25
2023-05-19T11:31:08.395Z,3.10
2023-05-19T11:36:11.417Z,3.80
2023-05-19T11:41:18.231Z,4.63
2023-05-19T11:46:21.387Z,6.15
2023-05-19T11:51:23.761Z,2.65
2023-05-19T11:56:26.773Z,4.40
2023-05-19T12:01:28.892Z,4.15
2023-05-19T12:06:31.618Z,4.22
2023-05-19T12:11:35.312Z,3.97
2023-05-19T12:16:37.467Z,3.50
2023-05-19T12:21:39.909Z,5.38
2023-05-19T12:26:42.116Z,6.25
2023-05-19T12:31:47.168Z,3.92
2023-05-19T12:36:50.114Z,5.22
2023-05-19T12:41:52.349Z,7.70
2023-05-19T12:46:54.682Z,5.43
2023-05-19T12:51:56.935Z,6.32
2023-05-19T12:57:00.494Z,5.10
2023-05-19T13:02:02.857Z,4.90
2023-05-19T13:07:06.112Z,4.93
2023-05-19T13:12:08.458Z,5.10
2023-05-19T13:17:10.595Z,5.47
2023-05-19T13:22:12.828Z,4.82
2023-05-19T13:27:16.115Z,6.95
2023-05-19T13:32:18.383Z,7.25
2023-05-19T13:37:20.997Z,6.40
2023-05-19T13:42:23.607Z,6.78
2023-05-19T13:47:26.666Z,8.57
2023-05-19T13:52:30.486Z,8.40
2023-05-19T13:57:33.432Z,7.55
2023-05-19T14:02:36.581Z,6.15
2023-05-19T14:07:39.173Z,5.85
2023-05-19T14:13:04.754Z,9.43
2023-05-19T14:18:05.044Z,8.20
2023-05-19T14:23:08.945Z,9.75
2023-05-19T14:28:11.582Z,5.78
2023-05-19T14:33:16.167Z,9.52
2023-05-19T14:38:23.075Z,9.48
2023-05-19T14:43:25.519Z,6.38
2023-05-19T14:48:32.055Z,6.68
2023-05-19T14:53:34.219Z,6.88
2023-05-19T14:58:37.416Z,7.45
2023-05-19T15:03:39.738Z,6.45
2023-05-19T15:08:41.994Z,8.55
2023-05-19T15:13:44.411Z,7.25
2023-05-19T15:18:46.799Z,9.00
2023-05-19T15:23:48.935Z,7.18
2023-05-19T15:28:53.203Z,8.80
2023-05-19T15:33:55.450Z,5.32
2023-05-19T15:38:57.649Z,7.10
2023-05-19T15:44:02.889Z,7.63
2023-05-19T15:49:07.334Z,10.85
2023-05-19T15:54:11.175Z,6.05
2023-05-19T15:59:36.649Z,5.88
2023-05-19T16:04:45.782Z,7.15
2023-05-19T16:09:48.412Z,9.05
2023-05-19T16:14:51.314Z,6.05
2023-05-19T16:19:53.520Z,7.57
2023-05-19T16:24:55.840Z,7.93
2023-05-19T16:29:58.054Z,7.15
2023-05-19T16:35:00.368Z,8.85
2023-05-19T16:40:02.549Z,6.60
2023-05-19T16:45:05.872Z,9.05
2023-05-19T16:50:08.860Z,6.75
2023-05-19T16:55:13.355Z,5.45
2023-05-19T17:00:15.975Z,8.23
2023-05-19T17:05:18.220Z,6.78
2023-05-19T17:10:21.056Z,7.05
2023-05-19T17:15:23.447Z,7.10
2023-05-19T17:20:25.673Z,9.50
2023-05-19T17:25:27.878Z,6.15
2023-05-19T17:30:30.138Z,6.65
2023-05-19T17:35:34.279Z,8.98
2023-05-19T17:40:38.593Z,5.30
2023-05-19T17:45:42.052Z,5.15
2023-05-19T17:50:48.321Z,7.93
2023-05-19T17:56:01.971Z,6.13
2023-05-19T18:01:04.900Z,8.55
2023-05-19T18:06:07.936Z,7.32
2023-05-19T18:11:13.813Z,8.48
2023-05-19T18:16:16.281Z,8.18
2023-05-19T18:21:20.899Z,7.22
2023-05-19T18:26:23.509Z,8.63
2023-05-19T18:31:26.347Z,9.38
2023-05-19T18:36:41.426Z,7.32
2023-05-19T18:41:44.913Z,7.43
2023-05-19T18:46:47.231Z,8.20
2023-05-19T18:51:50.397Z,8.60
2023-05-19T18:56:53.195Z,7.80
2023-05-19T19:01:56.163Z,10.23
2023-05-19T19:06:58.601Z,8.43
2023-05-19T19:12:01.200Z,10.27
2023-05-19T19:17:03.420Z,6.50
2023-05-19T19:22:05.672Z,7.75
2023-05-19T19:27:07.775Z,7.85
2023-05-19T19:32:17.401Z,9.00
2023-05-19T19:37:23.059Z,7.65
2023-05-19T19:42:25.875Z,7.07
2023-05-19T19:47:27.856Z,7.55
2023-05-19T19:52:30.303Z,6.88
2023-05-19T19:57:34.679Z,7.63
2023-05-19T20:02:45.529Z,6.43
2023-05-19T20:07:57.855Z,7.20
2023-05-19T20:13:00.043Z,7.47
2023-05-19T20:18:03.701Z,8.32
2023-05-19T20:23:06.375Z,9.25
2023-05-19T20:28:08.627Z,6.10
2023-05-19T20:33:12.407Z,8.27
2023-05-19T20:38:15.008Z,8.45
2023-05-19T20:43:17.026Z,8.65
2023-05-19T20:48:19.143Z,8.15
2023-05-19T20:53:22.134Z,8.90
2023-05-19T20:58:26.943Z,16.52
2023-05-19T21:03:30.656Z,7.15
2023-05-19T21:08:33.061Z,8.88
2023-05-19T21:13:39.386Z,8.13
2023-05-19T21:18:42.136Z,7.32
2023-05-19T21:23:44.053Z,6.47
2023-05-19T21:33:47.859Z,8.73
2023-05-19T21:38:49.778Z,7.85
2023-05-19T21:48:53.541Z,9.70
2023-05-19T21:53:55.883Z,10.88
2023-05-19T21:58:57.870Z,10.68
2023-05-19T22:09:02.776Z,8.85
2023-05-19T22:14:04.847Z,10.00
2023-05-19T22:19:06.937Z,11.40
2023-05-19T22:24:09.046Z,12.27
2023-05-19T22:29:15.292Z,9.82
2023-05-19T22:34:17.596Z,11.55
2023-05-19T22:39:19.580Z,14.00
2023-05-19T22:44:21.760Z,13.77
2023-05-19T22:49:23.883Z,14.02
2023-05-19T22:54:25.805Z,10.95
2023-05-19T22:59:27.993Z,13.70
2023-05-19T23:04:29.994Z,13.32
2023-05-19T23:09:32.024Z,11.98
2023-05-19T23:19:37.163Z,16.15
2023-05-19T23:24:39.056Z,13.30
2023-05-19T23:34:42.883Z,11.95
2023-05-19T23:39:54.755Z,12.45
2023-05-19T23:44:56.615Z,15.90
2023-05-19T23:55:00.220Z,13.85
